sensor_id;sensor_type;location;lat;lon;timestamp;P1;durP1;ratioP1;P2;durP2;ratioP2
33738;SDS011;20063;51.730;11.110;2023-04-24T00:00:03;1.92;;;1.40;;
33738;SDS011;20063;51.730;11.110;2023-04-24T00:02:34;1.98;;;1.30;;
33738;SDS011;20063;51.730;11.110;2023-04-24T00:05:02;1.80;;;1.33;;
33738;SDS011;20063;51.730;11.110;2023-04-24T00:07:29;2.20;;;1.50;;
33738;SDS011;20063;51.730;11.110;2023-04-24T00:09:55;3.40;;;1.30;;
33738;SDS011;20063;51.730;11.110;2023-04-24T00:12:21;1.38;;;1.00;;
33738;SDS011;20063;51.730;11.110;2023-04-24T00:14:46;5.78;;;1.42;;
33738;SDS011;20063;51.730;11.110;2023-04-24T00:17:12;2.03;;;1.92;;
33738;SDS011;20063;51.730;11.110;2023-04-24T00:19:38;5.95;;;1.45;;
33738;SDS011;20063;51.730;11.110;2023-04-24T00:22:03;2.70;;;1.27;;
33738;SDS011;20063;51.730;11.110;2023-04-24T00:24:29;3.20;;;1.48;;
33738;SDS011;20063;51.730;11.110;2023-04-24T00:26:55;5.60;;;1.20;;
33738;SDS011;20063;51.730;11.110;2023-04-24T00:29:21;7.47;;;1.15;;
33738;SDS011;20063;51.730;11.110;2023-04-24T00:31:46;1.50;;;1.20;;
33738;SDS011;20063;51.730;11.110;2023-04-24T00:34:12;1.30;;;1.20;;
33738;SDS011;20063;51.730;11.110;2023-04-24T00:36:38;2.80;;;1.73;;
33738;SDS011;20063;51.730;11.110;2023-04-24T00:39:04;5.10;;;1.55;;
33738;SDS011;20063;51.730;11.110;2023-04-24T00:41:29;2.33;;;1.50;;
33738;SDS011;20063;51.730;11.110;2023-04-24T00:43:56;4.78;;;1.90;;
33738;SDS011;20063;51.730;11.110;2023-04-24T00:46:22;4.13;;;1.63;;
33738;SDS011;20063;51.730;11.110;2023-04-24T00:48:47;3.13;;;1.45;;
33738;SDS011;20063;51.730;11.110;2023-04-24T00:51:13;1.65;;;1.40;;
33738;SDS011;20063;51.730;11.110;2023-04-24T00:53:39;2.30;;;1.63;;
33738;SDS011;20063;51.730;11.110;2023-04-24T00:56:04;3.25;;;1.60;;
33738;SDS011;20063;51.730;11.110;2023-04-24T00:58:30;1.42;;;1.23;;
33738;SDS011;20063;51.730;11.110;2023-04-24T01:00:57;1.23;;;1.20;;
33738;SDS011;20063;51.730;11.110;2023-04-24T01:03:24;4.97;;;1.20;;
33738;SDS011;20063;51.730;11.110;2023-04-24T01:05:53;1.00;;;1.00;;
33738;SDS011;20063;51.730;11.110;2023-04-24T01:08:19;2.42;;;1.35;;
33738;SDS011;20063;51.730;11.110;2023-04-24T01:10:48;1.48;;;1.20;;
33738;SDS011;20063;51.730;11.110;2023-04-24T01:13:16;4.18;;;1.38;;
33738;SDS011;20063;51.730;11.110;2023-04-24T01:15:43;2.40;;;1.58;;
33738;SDS011;20063;51.730;11.110;2023-04-24T01:18:09;4.50;;;1.70;;
33738;SDS011;20063;51.730;11.110;2023-04-24T01:20:41;3.55;;;1.23;;
33738;SDS011;20063;51.730;11.110;2023-04-24T01:23:09;3.97;;;1.67;;
33738;SDS011;20063;51.730;11.110;2023-04-24T01:25:35;5.28;;;1.63;;
33738;SDS011;20063;51.730;11.110;2023-04-24T01:28:01;2.95;;;1.88;;
33738;SDS011;20063;51.730;11.110;2023-04-24T01:30:28;3.42;;;1.67;;
33738;SDS011;20063;51.730;11.110;2023-04-24T01:32:55;7.85;;;1.30;;
33738;SDS011;20063;51.730;11.110;2023-04-24T01:35:21;2.15;;;1.42;;
33738;SDS011;20063;51.730;11.110;2023-04-24T01:37:47;4.45;;;1.58;;
33738;SDS011;20063;51.730;11.110;2023-04-24T01:40:13;5.20;;;1.60;;
33738;SDS011;20063;51.730;11.110;2023-04-24T01:42:40;3.25;;;1.63;;
33738;SDS011;20063;51.730;11.110;2023-04-24T01:45:06;2.50;;;1.50;;
33738;SDS011;20063;51.730;11.110;2023-04-24T01:47:35;3.20;;;1.67;;
33738;SDS011;20063;51.730;11.110;2023-04-24T01:50:01;2.88;;;1.40;;
33738;SDS011;20063;51.730;11.110;2023-04-24T01:52:27;2.08;;;1.70;;
33738;SDS011;20063;51.730;11.110;2023-04-24T01:54:58;6.57;;;1.85;;
33738;SDS011;20063;51.730;11.110;2023-04-24T01:57:25;1.73;;;1.45;;
33738;SDS011;20063;51.730;11.110;2023-04-24T01:59:51;3.80;;;1.77;;
33738;SDS011;20063;51.730;11.110;2023-04-24T02:02:17;2.95;;;1.80;;
33738;SDS011;20063;51.730;11.110;2023-04-24T02:04:46;5.47;;;1.55;;
33738;SDS011;20063;51.730;11.110;2023-04-24T02:07:11;3.72;;;1.45;;
33738;SDS011;20063;51.730;11.110;2023-04-24T02:09:37;1.85;;;1.15;;
33738;SDS011;20063;51.730;11.110;2023-04-24T02:12:02;4.35;;;1.58;;
33738;SDS011;20063;51.730;11.110;2023-04-24T02:14:29;6.90;;;1.33;;
33738;SDS011;20063;51.730;11.110;2023-04-24T02:16:56;2.38;;;1.20;;
33738;SDS011;20063;51.730;11.110;2023-04-24T02:19:22;1.58;;;1.20;;
33738;SDS011;20063;51.730;11.110;2023-04-24T02:21:51;2.78;;;1.17;;
33738;SDS011;20063;51.730;11.110;2023-04-24T02:24:16;2.28;;;1.38;;
33738;SDS011;20063;51.730;11.110;2023-04-24T02:26:42;3.60;;;1.20;;
33738;SDS011;20063;51.730;11.110;2023-04-24T02:29:08;8.60;;;1.40;;
33738;SDS011;20063;51.730;11.110;2023-04-24T02:31:33;4.13;;;1.23;;
33738;SDS011;20063;51.730;11.110;2023-04-24T02:33:59;3.38;;;1.52;;
33738;SDS011;20063;51.730;11.110;2023-04-24T02:36:24;5.90;;;1.48;;
33738;SDS011;20063;51.730;11.110;2023-04-24T02:38:50;5.45;;;1.52;;
33738;SDS011;20063;51.730;11.110;2023-04-24T02:41:15;3.30;;;1.60;;
33738;SDS011;20063;51.730;11.110;2023-04-24T02:43:41;1.35;;;1.20;;
33738;SDS011;20063;51.730;11.110;2023-04-24T02:46:07;2.33;;;1.33;;
33738;SDS011;20063;51.730;11.110;2023-04-24T02:48:32;1.67;;;1.58;;
33738;SDS011;20063;51.730;11.110;2023-04-24T02:50:58;6.30;;;1.50;;
33738;SDS011;20063;51.730;11.110;2023-04-24T02:53:23;6.00;;;1.70;;
33738;SDS011;20063;51.730;11.110;2023-04-24T02:55:49;3.80;;;1.80;;
33738;SDS011;20063;51.730;11.110;2023-04-24T02:58:15;3.53;;;1.70;;
33738;SDS011;20063;51.730;11.110;2023-04-24T03:00:42;4.70;;;1.73;;
33738;SDS011;20063;51.730;11.110;2023-04-24T03:03:08;2.35;;;1.52;;
33738;SDS011;20063;51.730;11.110;2023-04-24T03:05:34;4.00;;;1.60;;
33738;SDS011;20063;51.730;11.110;2023-04-24T03:08:01;4.30;;;1.50;;
33738;SDS011;20063;51.730;11.110;2023-04-24T03:10:26;3.75;;;1.60;;
33738;SDS011;20063;51.730;11.110;2023-04-24T03:12:52;3.45;;;1.20;;
33738;SDS011;20063;51.730;11.110;2023-04-24T03:15:17;3.75;;;2.00;;
33738;SDS011;20063;51.730;11.110;2023-04-24T03:17:44;4.20;;;1.88;;
33738;SDS011;20063;51.730;11.110;2023-04-24T03:20:10;3.30;;;1.50;;
33738;SDS011;20063;51.730;11.110;2023-04-24T03:22:35;2.60;;;1.33;;
33738;SDS011;20063;51.730;11.110;2023-04-24T03:25:01;1.58;;;1.48;;
33738;SDS011;20063;51.730;11.110;2023-04-24T03:27:27;4.25;;;1.45;;
33738;SDS011;20063;51.730;11.110;2023-04-24T03:29:53;3.03;;;1.65;;
33738;SDS011;20063;51.730;11.110;2023-04-24T03:32:20;2.80;;;1.65;;
33738;SDS011;20063;51.730;11.110;2023-04-24T03:34:49;3.03;;;1.88;;
33738;SDS011;20063;51.730;11.110;2023-04-24T03:37:15;4.20;;;1.65;;
33738;SDS011;20063;51.730;11.110;2023-04-24T03:39:41;4.32;;;2.15;;
33738;SDS011;20063;51.730;11.110;2023-04-24T03:42:07;2.17;;;1.52;;
33738;SDS011;20063;51.730;11.110;2023-04-24T03:44:33;5.88;;;1.73;;
33738;SDS011;20063;51.730;11.110;2023-04-24T03:46:59;5.03;;;1.88;;
33738;SDS011;20063;51.730;11.110;2023-04-24T03:49:25;9.68;;;1.70;;
33738;SDS011;20063;51.730;11.110;2023-04-24T03:51:51;9.35;;;1.50;;
33738;SDS011;20063;51.730;11.110;2023-04-24T03:54:17;2.83;;;1.95;;
33738;SDS011;20063;51.730;11.110;2023-04-24T03:56:43;3.97;;;2.03;;
33738;SDS011;20063;51.730;11.110;2023-04-24T03:59:09;1.65;;;1.20;;
33738;SDS011;20063;51.730;11.110;2023-04-24T04:01:36;2.15;;;1.20;;
33738;SDS011;20063;51.730;11.110;2023-04-24T04:04:05;3.20;;;1.83;;
33738;SDS011;20063;51.730;11.110;2023-04-24T04:06:31;3.95;;;1.48;;
33738;SDS011;20063;51.730;11.110;2023-04-24T04:08:57;2.38;;;1.60;;
33738;SDS011;20063;51.730;11.110;2023-04-24T04:11:24;2.47;;;1.67;;
33738;SDS011;20063;51.730;11.110;2023-04-24T04:13:50;1.90;;;1.63;;
33738;SDS011;20063;51.730;11.110;2023-04-24T04:16:15;12.45;;;2.28;;
33738;SDS011;20063;51.730;11.110;2023-04-24T04:18:44;2.38;;;1.83;;
33738;SDS011;20063;51.730;11.110;2023-04-24T04:21:10;5.95;;;2.45;;
33738;SDS011;20063;51.730;11.110;2023-04-24T04:23:36;7.78;;;1.88;;
33738;SDS011;20063;51.730;11.110;2023-04-24T04:26:02;6.82;;;2.03;;
33738;SDS011;20063;51.730;11.110;2023-04-24T04:28:28;3.88;;;2.38;;
33738;SDS011;20063;51.730;11.110;2023-04-24T04:30:55;3.47;;;1.90;;
33738;SDS011;20063;51.730;11.110;2023-04-24T04:33:22;3.42;;;1.85;;
33738;SDS011;20063;51.730;11.110;2023-04-24T04:35:48;2.58;;;1.98;;
33738;SDS011;20063;51.730;11.110;2023-04-24T04:38:15;3.45;;;1.77;;
33738;SDS011;20063;51.730;11.110;2023-04-24T04:40:41;2.70;;;2.05;;
33738;SDS011;20063;51.730;11.110;2023-04-24T04:43:07;2.75;;;1.50;;
33738;SDS011;20063;51.730;11.110;2023-04-24T04:45:33;4.85;;;1.95;;
33738;SDS011;20063;51.730;11.110;2023-04-24T04:47:59;4.05;;;1.80;;
33738;SDS011;20063;51.730;11.110;2023-04-24T04:50:26;4.32;;;2.92;;
33738;SDS011;20063;51.730;11.110;2023-04-24T04:52:52;2.83;;;2.10;;
33738;SDS011;20063;51.730;11.110;2023-04-24T04:55:18;10.43;;;2.35;;
33738;SDS011;20063;51.730;11.110;2023-04-24T04:57:46;10.82;;;2.50;;
33738;SDS011;20063;51.730;11.110;2023-04-24T05:00:11;5.25;;;2.47;;
33738;SDS011;20063;51.730;11.110;2023-04-24T05:02:38;5.78;;;2.20;;
33738;SDS011;20063;51.730;11.110;2023-04-24T05:05:04;4.95;;;1.98;;
33738;SDS011;20063;51.730;11.110;2023-04-24T05:07:30;6.00;;;2.60;;
33738;SDS011;20063;51.730;11.110;2023-04-24T05:09:56;4.80;;;2.58;;
33738;SDS011;20063;51.730;11.110;2023-04-24T05:12:22;12.90;;;4.55;;
33738;SDS011;20063;51.730;11.110;2023-04-24T05:14:47;17.02;;;8.30;;
33738;SDS011;20063;51.730;11.110;2023-04-24T05:17:13;15.13;;;5.72;;
33738;SDS011;20063;51.730;11.110;2023-04-24T05:19:39;4.00;;;2.40;;
33738;SDS011;20063;51.730;11.110;2023-04-24T05:22:04;4.35;;;2.75;;
33738;SDS011;20063;51.730;11.110;2023-04-24T05:24:32;7.80;;;3.70;;
33738;SDS011;20063;51.730;11.110;2023-04-24T05:26:58;8.15;;;2.20;;
33738;SDS011;20063;51.730;11.110;2023-04-24T05:29:24;3.58;;;2.53;;
33738;SDS011;20063;51.730;11.110;2023-04-24T05:31:51;4.50;;;1.92;;
33738;SDS011;20063;51.730;11.110;2023-04-24T05:34:17;4.75;;;1.65;;
33738;SDS011;20063;51.730;11.110;2023-04-24T05:36:44;2.80;;;1.67;;
33738;SDS011;20063;51.730;11.110;2023-04-24T05:39:10;3.28;;;2.72;;
33738;SDS011;20063;51.730;11.110;2023-04-24T05:41:36;2.78;;;2.30;;
33738;SDS011;20063;51.730;11.110;2023-04-24T05:44:02;4.78;;;1.50;;
33738;SDS011;20063;51.730;11.110;2023-04-24T05:46:27;2.20;;;1.50;;
33738;SDS011;20063;51.730;11.110;2023-04-24T05:48:53;2.55;;;1.65;;
33738;SDS011;20063;51.730;11.110;2023-04-24T05:51:19;2.05;;;1.50;;
33738;SDS011;20063;51.730;11.110;2023-04-24T05:53:44;3.65;;;1.70;;
33738;SDS011;20063;51.730;11.110;2023-04-24T05:56:10;5.65;;;1.45;;
33738;SDS011;20063;51.730;11.110;2023-04-24T05:58:35;2.55;;;1.67;;
33738;SDS011;20063;51.730;11.110;2023-04-24T06:01:03;5.93;;;1.65;;
33738;SDS011;20063;51.730;11.110;2023-04-24T06:03:29;4.97;;;1.67;;
33738;SDS011;20063;51.730;11.110;2023-04-24T06:05:54;9.20;;;1.77;;
33738;SDS011;20063;51.730;11.110;2023-04-24T06:08:20;4.28;;;1.35;;
33738;SDS011;20063;51.730;11.110;2023-04-24T06:10:46;12.02;;;1.77;;
33738;SDS011;20063;51.730;11.110;2023-04-24T06:13:12;33.60;;;4.75;;
33738;SDS011;20063;51.730;11.110;2023-04-24T06:15:37;6.22;;;1.80;;
33738;SDS011;20063;51.730;11.110;2023-04-24T06:18:03;3.38;;;1.50;;
33738;SDS011;20063;51.730;11.110;2023-04-24T06:20:28;2.47;;;1.33;;
33738;SDS011;20063;51.730;11.110;2023-04-24T06:22:54;3.03;;;1.60;;
33738;SDS011;20063;51.730;11.110;2023-04-24T06:25:28;3.20;;;1.42;;
33738;SDS011;20063;51.730;11.110;2023-04-24T06:27:54;2.55;;;1.50;;
33738;SDS011;20063;51.730;11.110;2023-04-24T06:30:21;2.38;;;1.33;;
33738;SDS011;20063;51.730;11.110;2023-04-24T06:32:47;5.18;;;1.60;;
33738;SDS011;20063;51.730;11.110;2023-04-24T06:35:12;5.35;;;1.30;;
33738;SDS011;20063;51.730;11.110;2023-04-24T06:37:41;4.55;;;1.20;;
33738;SDS011;20063;51.730;11.110;2023-04-24T06:40:07;2.10;;;1.25;;
33738;SDS011;20063;51.730;11.110;2023-04-24T06:42:34;4.57;;;1.60;;
33738;SDS011;20063;51.730;11.110;2023-04-24T06:45:00;5.85;;;1.00;;
33738;SDS011;20063;51.730;11.110;2023-04-24T06:47:26;2.10;;;1.20;;
33738;SDS011;20063;51.730;11.110;2023-04-24T06:49:51;1.40;;;1.10;;
33738;SDS011;20063;51.730;11.110;2023-04-24T06:52:17;4.10;;;1.30;;
33738;SDS011;20063;51.730;11.110;2023-04-24T06:54:43;8.65;;;1.17;;
33738;SDS011;20063;51.730;11.110;2023-04-24T06:57:09;0.85;;;0.85;;
33738;SDS011;20063;51.730;11.110;2023-04-24T06:59:35;4.68;;;1.20;;
33738;SDS011;20063;51.730;11.110;2023-04-24T07:02:01;1.77;;;1.10;;
33738;SDS011;20063;51.730;11.110;2023-04-24T07:04:27;16.20;;;3.33;;
33738;SDS011;20063;51.730;11.110;2023-04-24T07:06:53;4.70;;;1.23;;
33738;SDS011;20063;51.730;11.110;2023-04-24T07:09:23;3.58;;;1.30;;
33738;SDS011;20063;51.730;11.110;2023-04-24T07:11:50;2.67;;;1.20;;
33738;SDS011;20063;51.730;11.110;2023-04-24T07:14:16;9.70;;;1.23;;
33738;SDS011;20063;51.730;11.110;2023-04-24T07:16:42;8.43;;;1.35;;
33738;SDS011;20063;51.730;11.110;2023-04-24T07:19:08;7.70;;;1.60;;
33738;SDS011;20063;51.730;11.110;2023-04-24T07:21:34;1.50;;;1.08;;
33738;SDS011;20063;51.730;11.110;2023-04-24T07:24:01;2.00;;;1.17;;
33738;SDS011;20063;51.730;11.110;2023-04-24T07:26:28;4.55;;;1.10;;
33738;SDS011;20063;51.730;11.110;2023-04-24T07:28:54;4.85;;;1.13;;
33738;SDS011;20063;51.730;11.110;2023-04-24T07:31:20;2.08;;;1.10;;
33738;SDS011;20063;51.730;11.110;2023-04-24T07:33:48;1.80;;;1.10;;
33738;SDS011;20063;51.730;11.110;2023-04-24T07:36:15;2.70;;;1.23;;
33738;SDS011;20063;51.730;11.110;2023-04-24T07:38:47;2.78;;;0.95;;
33738;SDS011;20063;51.730;11.110;2023-04-24T07:41:13;3.97;;;1.13;;
33738;SDS011;20063;51.730;11.110;2023-04-24T07:43:39;2.15;;;1.20;;
33738;SDS011;20063;51.730;11.110;2023-04-24T07:46:05;1.65;;;1.17;;
33738;SDS011;20063;51.730;11.110;2023-04-24T07:48:31;3.28;;;1.40;;
33738;SDS011;20063;51.730;11.110;2023-04-24T07:50:56;1.85;;;1.00;;
33738;SDS011;20063;51.730;11.110;2023-04-24T07:53:22;4.55;;;1.20;;
33738;SDS011;20063;51.730;11.110;2023-04-24T07:55:48;1.30;;;1.08;;
33738;SDS011;20063;51.730;11.110;2023-04-24T07:58:13;2.60;;;1.10;;
33738;SDS011;20063;51.730;11.110;2023-04-24T08:00:39;1.27;;;0.95;;
33738;SDS011;20063;51.730;11.110;2023-04-24T08:03:05;5.80;;;0.93;;
33738;SDS011;20063;51.730;11.110;2023-04-24T08:05:30;4.70;;;1.40;;
33738;SDS011;20063;51.730;11.110;2023-04-24T08:07:56;1.70;;;0.85;;
33738;SDS011;20063;51.730;11.110;2023-04-24T08:10:22;1.10;;;0.93;;
33738;SDS011;20063;51.730;11.110;2023-04-24T08:12:48;3.45;;;1.23;;
33738;SDS011;20063;51.730;11.110;2023-04-24T08:15:14;3.75;;;1.10;;
33738;SDS011;20063;51.730;11.110;2023-04-24T08:17:39;0.85;;;0.70;;
33738;SDS011;20063;51.730;11.110;2023-04-24T08:20:16;3.85;;;1.08;;
